Huvudsida
METAR-TAF:

METAR-TAF

Flygplatser :

Malmö Airport

Malmö, Sverige

latitud: 55-33N, longitud: 013-22E, höjd: 106 m

Aktuellt väderrapport

Denna rapport gjordes för 37 minuter sedan, klockan 14:20 UTC
Vind 26 kt från ost
Temperatur 16°C
Fuktighet 31%
Tryck 1015 hPa
Sikt 10 km eller mer

METAR: ESMS 231420Z 10026KT 9999 NSC 16/M01 Q1015

Tid: 16:57 (14:57 UTC)

Väderprognos

Denna rapport gjordes för 3 timmar och 53 minuter sedan, klockan 11:04 UTC
Prognos gäller från 23 kl. 12 UTC till 24 kl. 12 UTC
Vind 18 kt från ost/sydost
Sikt 10 km eller mer
Inga moln under 1 500 m eller inga cumulonimbus
Temporärt
från 23 kl. 12 UTC till 23 kl. 15 UTC
Vind 25 kt från ost i byarna ända upp till 40 kt
Temporärt
från 23 kl. 15 UTC till 23 kl. 18 UTC
Vind 20 kt från ost i byarna ända upp till 30 kt

TAF: ESMS 231104Z 2312/2412 11018KT CAVOK TEMPO 2312/2315 10025G40KT TEMPO 2315/2318 10020G30KT

Aktuella väderrapporter och prognoser från 4000 flygplatser (METAR- och TAF-rapporter).

De tillgängliga stationerna syns som gula och röda prickar på kartan.

För musen över prickarna för att se namnen på stationerna.

Klicka sedan för att få väderrapporter och prognoser.

För att ändra kartan: Klicka på de gröna knapparna med ett svart kors på för att zooma in; den gröna knappen med ett streck på för att zooma ut; eller på de gröna pilarna för angränsande kartor.


METAR-TAF: